Terminal Aerodrome Forecast
Issued by NWS Knoxville/Tri Cities, TN

Home | Current Version | Previous Version | Text Only | Print | Product List | Glossary On
Versions: 1 2 3 4 5 6 7 8 9 10 11 12 13 14 15 16 17 18 19 20 21 22 23 24 25 26 27 28 29 30 31 32 33 34 35 36
000
FTUS44 KMRX 231048 AAA
TAFTRI
TAF AMD
KTRI 231048Z 2311/2406 05006KT 6SM -RA BR SCT008 BKN040 OVC150
     FM231400 07005KT 4SM -SHRA BR SCT008 BKN025 OVC040
     FM231900 05005KT 3SM -SHRA BR OVC015=

USA.gov is the U.S. government's official web portal to all federal, state and local government web resources and services.